createdAt,value
2023-02-19T00:01:39.532Z,100.00
2023-02-19T00:04:09.642Z,100.00
2023-02-19T00:06:37.461Z,100.00
2023-02-19T00:09:05.903Z,100.00
2023-02-19T00:11:34.380Z,100.00
2023-02-19T00:14:02.974Z,100.00
2023-02-19T00:16:32.471Z,100.00
2023-02-19T00:19:01.411Z,100.00
2023-02-19T00:21:29.224Z,100.00
2023-02-19T00:24:00.872Z,100.00
2023-02-19T00:26:29.180Z,100.00
2023-02-19T00:28:57.577Z,100.00
2023-02-19T00:31:27.115Z,100.00
2023-02-19T00:33:57.358Z,100.00
2023-02-19T00:36:26.589Z,100.00
2023-02-19T00:38:54.634Z,100.00
2023-02-19T00:41:24.039Z,100.00
2023-02-19T00:43:54.828Z,100.00
2023-02-19T00:46:24.129Z,100.00
2023-02-19T00:48:52.593Z,100.00
2023-02-19T00:51:21.462Z,100.00
2023-02-19T00:53:49.205Z,100.00
2023-02-19T00:56:17.399Z,100.00
2023-02-19T00:58:45.400Z,100.00
2023-02-19T01:01:13.762Z,100.00
2023-02-19T01:03:41.805Z,100.00
2023-02-19T01:06:10.509Z,100.00
2023-02-19T01:08:38.226Z,100.00
2023-02-19T01:11:07.292Z,100.00
2023-02-19T01:13:35.690Z,100.00
2023-02-19T01:16:07.897Z,100.00
2023-02-19T01:18:35.988Z,100.00
2023-02-19T01:21:08.622Z,100.00
2023-02-19T01:23:36.598Z,100.00
2023-02-19T01:26:06.233Z,100.00
2023-02-19T01:28:34.326Z,100.00
2023-02-19T01:31:03.386Z,100.00
2023-02-19T01:33:31.784Z,100.00
2023-02-19T01:35:59.594Z,100.00
2023-02-19T01:38:27.689Z,100.00
2023-02-19T01:40:56.725Z,100.00
2023-02-19T01:43:24.542Z,100.00
2023-02-19T01:45:52.682Z,100.00
2023-02-19T01:48:23.761Z,100.00
2023-02-19T01:51:03.160Z,100.00
2023-02-19T01:53:33.667Z,100.00
2023-02-19T01:56:02.421Z,100.00
2023-02-19T01:58:32.789Z,100.00
2023-02-19T02:01:02.998Z,100.00
2023-02-19T02:03:31.426Z,100.00
2023-02-19T02:06:05.340Z,100.00
2023-02-19T02:08:49.561Z,100.00
2023-02-19T02:11:21.669Z,100.00
2023-02-19T02:13:49.997Z,100.00
2023-02-19T02:16:20.892Z,100.00
2023-02-19T02:18:54.539Z,100.00
2023-02-19T02:21:28.042Z,100.00
2023-02-19T02:24:13.042Z,100.00
2023-02-19T02:26:56.766Z,100.00
2023-02-19T02:29:27.840Z,100.00
2023-02-19T02:31:59.662Z,100.00
2023-02-19T02:34:30.198Z,100.00
2023-02-19T02:36:59.497Z,100.00
2023-02-19T02:39:30.609Z,100.00
2023-02-19T02:42:15.900Z,100.00
2023-02-19T02:45:01.811Z,100.00
2023-02-19T02:47:49.437Z,100.00
2023-02-19T02:50:21.455Z,100.00
2023-02-19T02:53:08.162Z,100.00
2023-02-19T02:55:39.597Z,100.00
2023-02-19T02:58:08.681Z,100.00
2023-02-19T03:00:57.804Z,100.00
2023-02-19T03:03:27.242Z,100.00
2023-02-19T03:05:58.816Z,100.00
2023-02-19T03:08:42.741Z,100.00
2023-02-19T03:11:27.720Z,100.00
2023-02-19T03:14:17.684Z,100.00
2023-02-19T03:17:04.077Z,100.00
2023-02-19T03:19:35.370Z,100.00
2023-02-19T03:22:09.992Z,100.00
2023-02-19T03:24:57.170Z,100.00
2023-02-19T03:27:27.603Z,100.00
2023-02-19T03:29:58.447Z,100.00
2023-02-19T03:32:36.776Z,100.00
2023-02-19T03:35:20.588Z,100.00
2023-02-19T03:37:57.309Z,100.00
2023-02-19T03:40:28.224Z,100.00
2023-02-19T03:43:09.352Z,100.00
2023-02-19T03:45:54.321Z,100.00
2023-02-19T03:48:29.196Z,100.00
2023-02-19T03:50:57.003Z,100.00
2023-02-19T03:53:30.278Z,100.00
2023-02-19T03:56:04.309Z,100.00
2023-02-19T03:58:39.043Z,100.00
2023-02-19T04:01:11.257Z,100.00
2023-02-19T04:03:50.138Z,100.00
2023-02-19T04:06:20.824Z,100.00
2023-02-19T04:08:50.718Z,100.00
2023-02-19T04:11:19.845Z,100.00
2023-02-19T04:13:54.467Z,100.00
2023-02-19T04:16:24.237Z,100.00
2023-02-19T04:18:54.688Z,100.00
2023-02-19T04:21:23.092Z,100.00
2023-02-19T04:23:51.118Z,100.00
2023-02-19T04:26:20.181Z,100.00
2023-02-19T04:28:47.991Z,100.00
2023-02-19T04:31:16.183Z,100.00
2023-02-19T04:33:44.166Z,100.00
2023-02-19T04:36:12.122Z,100.00
2023-02-19T04:38:39.854Z,100.00
2023-02-19T04:41:09.156Z,100.00
2023-02-19T04:43:37.266Z,100.00
2023-02-19T04:46:05.293Z,100.00
2023-02-19T04:48:33.183Z,100.00
2023-02-19T04:51:04.785Z,100.00
2023-02-19T04:53:32.602Z,100.00
2023-02-19T04:56:11.369Z,100.00
2023-02-19T04:58:39.849Z,100.00
2023-02-19T05:01:08.501Z,100.00
2023-02-19T05:03:36.710Z,100.00
2023-02-19T05:06:05.987Z,100.00
2023-02-19T05:08:34.113Z,100.00
2023-02-19T05:11:02.677Z,100.00
2023-02-19T05:13:30.852Z,100.00
2023-02-19T05:16:03.279Z,100.00
2023-02-19T05:18:31.827Z,100.00
2023-02-19T05:21:00.148Z,100.00
2023-02-19T05:23:27.959Z,100.00
2023-02-19T05:25:55.707Z,100.00
2023-02-19T05:28:28.647Z,100.00
2023-02-19T05:30:57.099Z,100.00
2023-02-19T05:33:25.838Z,100.00
2023-02-19T05:35:54.952Z,100.00
2023-02-19T05:38:23.170Z,100.00
2023-02-19T05:40:51.429Z,100.00
2023-02-19T05:43:19.308Z,100.00
2023-02-19T05:45:47.108Z,100.00
2023-02-19T05:48:15.155Z,100.00
2023-02-19T05:50:42.849Z,100.00
2023-02-19T05:53:13.113Z,100.00
2023-02-19T05:55:41.173Z,100.00
2023-02-19T05:58:08.922Z,100.00
2023-02-19T06:00:36.788Z,100.00
2023-02-19T06:03:04.550Z,100.00
2023-02-19T06:05:32.415Z,100.00
2023-02-19T06:08:00.122Z,100.00
2023-02-19T06:10:28.204Z,100.00
2023-02-19T06:12:56.056Z,100.00
2023-02-19T06:15:23.907Z,100.00
2023-02-19T06:17:51.598Z,100.00
2023-02-19T06:20:19.453Z,100.00
2023-02-19T06:22:49.564Z,100.00
2023-02-19T06:25:17.750Z,100.00
2023-02-19T06:27:45.502Z,100.00
2023-02-19T06:30:13.561Z,100.00
2023-02-19T06:32:41.432Z,100.00
2023-02-19T06:35:09.175Z,100.00
2023-02-19T06:37:36.871Z,100.00
2023-02-19T06:40:04.884Z,100.00
2023-02-19T06:42:33.170Z,100.00
2023-02-19T06:45:01.049Z,100.00
2023-02-19T06:47:30.958Z,100.00
2023-02-19T06:49:59.195Z,100.00
2023-02-19T06:52:27.574Z,100.00
2023-02-19T06:54:55.351Z,100.00
2023-02-19T06:57:23.266Z,100.00
2023-02-19T06:59:50.996Z,100.00
2023-02-19T07:02:18.723Z,100.00
2023-02-19T07:04:46.499Z,100.00
2023-02-19T07:07:14.492Z,100.00
2023-02-19T07:09:42.269Z,100.00
2023-02-19T07:12:10.229Z,100.00
2023-02-19T07:14:38.314Z,100.00
2023-02-19T07:17:06.188Z,100.00
2023-02-19T07:19:33.954Z,100.00
2023-02-19T07:22:01.705Z,100.00
2023-02-19T07:24:29.480Z,100.00
2023-02-19T07:26:57.292Z,100.00
2023-02-19T07:29:25.059Z,100.00
2023-02-19T07:31:52.778Z,100.00
2023-02-19T07:34:20.920Z,100.00
2023-02-19T07:36:48.660Z,100.00
2023-02-19T07:39:16.390Z,100.00
2023-02-19T07:41:44.320Z,100.00
2023-02-19T07:44:16.373Z,100.00
2023-02-19T07:46:44.392Z,100.00
2023-02-19T07:49:12.299Z,100.00
2023-02-19T07:51:40.226Z,100.00
2023-02-19T07:54:08.772Z,100.00
2023-02-19T07:56:36.471Z,100.00
2023-02-19T07:59:04.264Z,100.00
2023-02-19T08:01:47.941Z,100.00
2023-02-19T08:04:15.741Z,100.00
2023-02-19T08:06:43.466Z,100.00
2023-02-19T08:09:11.712Z,100.00
2023-02-19T08:11:54.353Z,100.00
2023-02-19T08:14:28.099Z,100.00
2023-02-19T08:16:56.713Z,100.00
2023-02-19T08:19:24.598Z,100.00
2023-02-19T08:21:53.480Z,100.00
2023-02-19T08:24:21.443Z,100.00
2023-02-19T08:26:49.552Z,100.00
2023-02-19T08:29:17.428Z,100.00
2023-02-19T08:31:45.308Z,100.00
2023-02-19T08:34:13.191Z,100.00
2023-02-19T08:36:40.933Z,100.00
2023-02-19T08:39:08.750Z,100.00
2023-02-19T08:41:36.471Z,100.00
2023-02-19T08:44:04.551Z,100.00
2023-02-19T08:46:34.342Z,100.00
2023-02-19T08:49:02.356Z,100.00
2023-02-19T08:51:30.116Z,100.00
2023-02-19T08:53:57.996Z,99.35
2023-02-19T08:56:25.761Z,99.90
2023-02-19T08:58:53.555Z,99.82
2023-02-19T09:01:21.509Z,100.00
2023-02-19T09:03:49.334Z,99.36
2023-02-19T09:06:18.407Z,98.21
2023-02-19T09:08:46.737Z,99.83
2023-02-19T09:11:14.873Z,99.11
2023-02-19T09:13:43.371Z,99.57
2023-02-19T09:16:11.880Z,99.24
2023-02-19T09:18:39.732Z,99.13
2023-02-19T09:21:07.606Z,98.63
2023-02-19T09:23:36.232Z,96.54
2023-02-19T09:26:07.011Z,96.64
2023-02-19T09:28:34.867Z,97.62
2023-02-19T09:31:06.404Z,96.66
2023-02-19T09:33:34.593Z,96.84
2023-02-19T09:36:02.991Z,96.71
2023-02-19T09:38:30.955Z,97.40
2023-02-19T09:41:00.026Z,96.03
2023-02-19T09:43:28.815Z,96.05
2023-02-19T09:46:04.435Z,93.98
2023-02-19T09:48:32.362Z,94.12
2023-02-19T09:51:01.695Z,93.64
2023-02-19T09:53:36.156Z,94.29
2023-02-19T09:56:04.550Z,91.97
2023-02-19T09:58:34.304Z,92.02
2023-02-19T10:01:03.314Z,93.18
2023-02-19T10:03:34.449Z,92.29
2023-02-19T10:06:06.099Z,90.85
2023-02-19T10:08:35.270Z,91.92
2023-02-19T10:11:04.661Z,92.53
2023-02-19T10:13:37.474Z,91.63
2023-02-19T10:16:07.007Z,91.84
2023-02-19T10:18:41.161Z,90.84
2023-02-19T10:21:15.886Z,91.89
2023-02-19T10:23:44.282Z,91.84
2023-02-19T10:26:12.162Z,90.77
2023-02-19T10:28:39.972Z,90.36
2023-02-19T10:31:16.363Z,87.97
2023-02-19T10:33:52.941Z,87.90
2023-02-19T10:36:27.850Z,88.22
2023-02-19T10:38:57.311Z,88.44
2023-02-19T10:41:26.302Z,87.35
2023-02-19T10:43:54.086Z,87.87
2023-02-19T10:46:24.278Z,87.24
2023-02-19T10:48:52.187Z,87.00
2023-02-19T10:51:25.335Z,88.24
2023-02-19T10:54:04.357Z,88.56
2023-02-19T10:56:33.672Z,83.74
2023-02-19T10:59:17.534Z,83.34
2023-02-19T11:02:01.566Z,85.84
2023-02-19T11:04:34.087Z,86.51
2023-02-19T11:07:14.917Z,85.58
2023-02-19T11:09:47.163Z,84.80
2023-02-19T11:12:23.339Z,82.08
2023-02-19T11:14:51.321Z,83.00
2023-02-19T11:17:34.932Z,82.06
2023-02-19T11:20:14.060Z,84.04
2023-02-19T11:22:42.721Z,81.22
2023-02-19T11:25:14.414Z,80.53
2023-02-19T11:27:58.244Z,82.15
2023-02-19T11:30:26.025Z,80.59
2023-02-19T11:32:53.878Z,80.72
2023-02-19T11:35:23.606Z,79.57
2023-02-19T11:37:59.244Z,79.93
2023-02-19T11:40:37.479Z,79.13
2023-02-19T11:43:05.969Z,77.55
2023-02-19T11:45:37.209Z,74.39
2023-02-19T11:48:05.034Z,74.19
2023-02-19T11:50:48.715Z,74.71
2023-02-19T11:53:22.526Z,77.47
2023-02-19T11:55:53.243Z,76.05
2023-02-19T11:58:24.074Z,73.76
2023-02-19T12:00:57.787Z,73.18
2023-02-19T12:03:41.653Z,76.57
2023-02-19T12:06:25.360Z,76.90
2023-02-19T12:09:09.123Z,72.52
2023-02-19T12:11:45.170Z,71.67
2023-02-19T12:14:28.943Z,65.40
2023-02-19T12:17:05.824Z,67.46
2023-02-19T12:19:48.518Z,68.88
2023-02-19T12:22:33.287Z,69.58
2023-02-19T12:25:07.181Z,69.73
2023-02-19T12:27:44.472Z,67.15
2023-02-19T12:30:28.388Z,67.77
2023-02-19T12:32:59.388Z,66.31
2023-02-19T12:35:27.125Z,67.75
2023-02-19T12:38:10.938Z,68.11
2023-02-19T12:40:49.130Z,67.10
2023-02-19T12:43:18.477Z,65.85
2023-02-19T12:45:52.855Z,65.48
2023-02-19T12:48:20.751Z,64.88
2023-02-19T12:50:50.917Z,66.56
2023-02-19T12:53:30.533Z,63.23
2023-02-19T12:56:00.587Z,61.57
2023-02-19T12:58:30.663Z,63.97
2023-02-19T13:00:59.782Z,61.69
2023-02-19T13:03:30.690Z,61.07
2023-02-19T13:06:01.601Z,61.15
2023-02-19T13:08:39.582Z,61.14
2023-02-19T13:11:15.242Z,60.85
2023-02-19T13:13:59.644Z,61.30
2023-02-19T13:16:33.157Z,59.35
2023-02-19T13:19:03.506Z,60.20
2023-02-19T13:21:49.357Z,61.39
2023-02-19T13:24:21.849Z,57.80
2023-02-19T13:26:49.945Z,59.71
2023-02-19T13:29:23.868Z,61.32
2023-02-19T13:32:07.940Z,61.53
2023-02-19T13:34:44.450Z,64.07
2023-02-19T13:37:12.465Z,62.91
2023-02-19T13:39:49.772Z,62.05
2023-02-19T13:42:27.914Z,62.02
2023-02-19T13:44:58.027Z,60.95
2023-02-19T13:47:42.521Z,63.09
2023-02-19T13:50:17.127Z,61.68
2023-02-19T13:52:44.946Z,64.21
2023-02-19T13:55:28.719Z,63.94
2023-02-19T13:58:16.397Z,64.92
2023-02-19T14:00:51.828Z,61.29
2023-02-19T14:03:27.449Z,59.93
2023-02-19T14:06:06.248Z,61.15
2023-02-19T14:08:49.971Z,61.65
2023-02-19T14:11:18.874Z,62.17
2023-02-19T14:13:49.976Z,62.75
2023-02-19T14:16:34.917Z,63.08
2023-02-19T14:19:02.678Z,61.91
2023-02-19T14:21:37.646Z,63.09
2023-02-19T14:24:10.944Z,62.90
2023-02-19T14:26:39.903Z,63.72
2023-02-19T14:29:08.898Z,65.23
2023-02-19T14:31:38.293Z,65.23
2023-02-19T14:34:13.981Z,64.71
2023-02-19T14:36:59.107Z,59.69
2023-02-19T14:39:33.057Z,59.64
2023-02-19T14:42:02.861Z,61.10
2023-02-19T14:44:45.400Z,60.04
2023-02-19T14:47:18.172Z,58.35
2023-02-19T14:49:52.222Z,60.40
2023-02-19T14:52:36.619Z,55.70
2023-02-19T14:55:09.316Z,59.23
2023-02-19T14:57:41.163Z,60.59
2023-02-19T15:00:24.943Z,59.41
2023-02-19T15:02:59.531Z,61.06
2023-02-19T15:05:29.565Z,62.01
2023-02-19T15:08:00.641Z,62.74
2023-02-19T15:10:29.992Z,61.86
2023-02-19T15:13:00.036Z,61.44
2023-02-19T15:15:29.745Z,62.57
2023-02-19T15:17:59.021Z,62.74
2023-02-19T15:20:28.887Z,62.31
2023-02-19T15:22:58.655Z,64.03
2023-02-19T15:25:29.782Z,62.44
2023-02-19T15:28:17.799Z,62.19
2023-02-19T15:30:45.617Z,61.68
2023-02-19T15:33:17.999Z,60.77
2023-02-19T15:35:54.369Z,59.07
2023-02-19T15:38:22.419Z,60.00
2023-02-19T15:40:50.399Z,59.08
2023-02-19T15:43:25.475Z,59.19
2023-02-19T15:45:57.628Z,58.24
2023-02-19T15:48:47.075Z,59.22
2023-02-19T15:51:21.189Z,58.70
2023-02-19T15:53:51.418Z,59.97
2023-02-19T15:56:29.408Z,59.57
2023-02-19T15:59:02.295Z,58.98
2023-02-19T16:01:31.553Z,59.59
2023-02-19T16:03:59.809Z,59.68
2023-02-19T16:06:28.158Z,60.47
2023-02-19T16:09:01.868Z,61.07
2023-02-19T16:11:46.010Z,61.12
2023-02-19T16:14:17.462Z,61.11
2023-02-19T16:16:46.551Z,61.28
2023-02-19T16:19:19.657Z,61.80
2023-02-19T16:21:47.657Z,62.14
2023-02-19T16:24:31.360Z,62.48
2023-02-19T16:26:59.287Z,62.45
2023-02-19T16:29:28.962Z,62.07
2023-02-19T16:31:58.234Z,62.40
2023-02-19T16:34:42.082Z,62.00
2023-02-19T16:37:25.724Z,61.83
2023-02-19T16:40:16.404Z,63.18
2023-02-19T16:42:44.580Z,62.21
2023-02-19T16:45:12.355Z,62.32
2023-02-19T16:47:44.826Z,62.72
2023-02-19T16:50:14.603Z,62.50
2023-02-19T16:52:58.342Z,62.47
2023-02-19T16:55:26.972Z,62.33
2023-02-19T16:57:54.854Z,61.68
2023-02-19T17:00:22.604Z,61.65
2023-02-19T17:02:51.609Z,61.84
2023-02-19T17:05:20.198Z,61.84
2023-02-19T17:07:48.456Z,62.11
2023-02-19T17:10:18.126Z,63.13
2023-02-19T17:12:45.918Z,63.54
2023-02-19T17:15:13.661Z,64.10
2023-02-19T17:17:41.575Z,64.26
2023-02-19T17:20:18.354Z,64.41
2023-02-19T17:22:46.087Z,64.40
2023-02-19T17:25:13.889Z,64.71
2023-02-19T17:27:41.849Z,65.43
2023-02-19T17:30:18.681Z,65.91
2023-02-19T17:32:46.467Z,65.47
2023-02-19T17:35:14.320Z,65.37
2023-02-19T17:37:42.126Z,65.22
2023-02-19T17:40:32.769Z,65.35
2023-02-19T17:43:01.946Z,65.49
2023-02-19T17:45:29.773Z,65.71
2023-02-19T17:47:58.166Z,66.04
2023-02-19T17:50:27.378Z,66.17
2023-02-19T17:52:55.649Z,66.39
2023-02-19T17:55:23.832Z,66.69
2023-02-19T17:57:52.020Z,66.97
2023-02-19T18:00:21.616Z,66.83
2023-02-19T18:02:49.355Z,66.96
2023-02-19T18:05:17.863Z,66.77
2023-02-19T18:07:46.605Z,66.89
2023-02-19T18:10:15.789Z,66.52
2023-02-19T18:12:43.560Z,66.59
2023-02-19T18:15:15.835Z,66.77
2023-02-19T18:17:44.058Z,66.59
2023-02-19T18:20:16.656Z,66.93
2023-02-19T18:22:44.428Z,66.96
2023-02-19T18:25:12.390Z,66.11
2023-02-19T18:27:40.165Z,65.80
2023-02-19T18:30:08.700Z,65.91
2023-02-19T18:32:37.029Z,65.84
2023-02-19T18:35:05.303Z,65.86
2023-02-19T18:37:33.883Z,66.32
2023-02-19T18:40:02.013Z,66.26
2023-02-19T18:42:29.742Z,66.01
2023-02-19T18:44:57.526Z,66.04
2023-02-19T18:47:25.753Z,66.11
2023-02-19T18:49:55.024Z,66.52
2023-02-19T18:52:24.770Z,66.59
2023-02-19T18:54:53.755Z,66.57
2023-02-19T18:57:22.476Z,66.71
2023-02-19T18:59:50.943Z,66.85
2023-02-19T19:02:19.221Z,67.01
2023-02-19T19:04:51.070Z,67.06
2023-02-19T19:07:19.474Z,67.43
2023-02-19T19:09:47.688Z,67.68
2023-02-19T19:12:15.864Z,68.21
2023-02-19T19:14:44.699Z,68.52
2023-02-19T19:17:12.574Z,68.30
2023-02-19T19:19:42.496Z,68.69
2023-02-19T19:22:10.291Z,68.53
2023-02-19T19:24:38.056Z,68.51
2023-02-19T19:27:06.029Z,68.76
2023-02-19T19:29:33.964Z,68.90
2023-02-19T19:32:01.926Z,69.16
2023-02-19T19:34:29.624Z,69.53
2023-02-19T19:36:57.392Z,69.72
2023-02-19T19:39:25.097Z,69.81
2023-02-19T19:41:53.769Z,70.18
2023-02-19T19:44:21.786Z,70.21
2023-02-19T19:46:50.145Z,70.68
2023-02-19T19:49:19.146Z,71.13
2023-02-19T19:51:47.122Z,71.80
2023-02-19T19:54:15.383Z,72.26
2023-02-19T19:56:44.584Z,72.24
2023-02-19T19:59:16.256Z,72.24
2023-02-19T20:01:47.715Z,72.90
2023-02-19T20:04:15.674Z,73.49
2023-02-19T20:06:43.457Z,73.32
2023-02-19T20:09:11.615Z,73.49
2023-02-19T20:11:47.423Z,73.86
2023-02-19T20:14:16.510Z,74.53
2023-02-19T20:16:44.897Z,74.21
2023-02-19T20:19:13.539Z,74.96
2023-02-19T20:21:45.231Z,75.50
2023-02-19T20:24:13.999Z,75.78
2023-02-19T20:26:41.899Z,75.95
2023-02-19T20:29:10.332Z,76.60
2023-02-19T20:31:38.621Z,76.83
2023-02-19T20:34:06.611Z,77.50
2023-02-19T20:36:41.560Z,77.45
2023-02-19T20:39:09.410Z,77.79
2023-02-19T20:41:37.216Z,78.30
2023-02-19T20:44:05.292Z,78.45
2023-02-19T20:46:33.010Z,78.90
2023-02-19T20:49:00.790Z,78.51
2023-02-19T20:51:28.545Z,79.09
2023-02-19T20:53:56.282Z,79.40
2023-02-19T20:56:23.933Z,79.62
2023-02-19T20:58:51.652Z,79.40
2023-02-19T21:01:24.890Z,79.74
2023-02-19T21:03:52.683Z,79.95
2023-02-19T21:06:20.361Z,80.20
2023-02-19T21:08:48.134Z,80.35
2023-02-19T21:11:15.868Z,80.51
2023-02-19T21:13:43.564Z,80.48
2023-02-19T21:16:11.655Z,80.76
2023-02-19T21:18:39.672Z,80.81
2023-02-19T21:21:07.514Z,80.59
2023-02-19T21:23:35.395Z,80.89
2023-02-19T21:26:03.494Z,81.15
2023-02-19T21:28:31.396Z,81.22
2023-02-19T21:30:59.069Z,81.46
2023-02-19T21:33:26.853Z,81.29
2023-02-19T21:35:54.731Z,81.63
2023-02-19T21:38:22.427Z,81.64
2023-02-19T21:40:50.761Z,81.52
2023-02-19T21:43:18.653Z,81.55
2023-02-19T21:45:46.548Z,81.52
2023-02-19T21:48:14.518Z,81.37
2023-02-19T21:50:45.512Z,81.35
2023-02-19T21:53:13.737Z,81.36
2023-02-19T21:55:56.568Z,81.43
2023-02-19T21:58:26.453Z,81.22
2023-02-19T22:00:54.402Z,81.16
2023-02-19T22:03:22.156Z,81.19
2023-02-19T22:05:49.843Z,81.17
2023-02-19T22:08:17.580Z,81.15
2023-02-19T22:10:45.308Z,81.31
2023-02-19T22:13:13.133Z,81.39
2023-02-19T22:15:41.003Z,81.44
2023-02-19T22:18:08.707Z,81.46
2023-02-19T22:20:38.314Z,81.39
2023-02-19T22:23:06.639Z,81.97
2023-02-19T22:25:34.395Z,81.59
2023-02-19T22:28:03.713Z,81.99
2023-02-19T22:30:31.538Z,82.13
2023-02-19T22:32:59.544Z,82.36
2023-02-19T22:35:27.378Z,82.41
2023-02-19T22:37:55.097Z,82.60
2023-02-19T22:40:22.864Z,82.55
2023-02-19T22:42:50.574Z,82.78
2023-02-19T22:45:18.486Z,82.88
2023-02-19T22:47:46.891Z,83.10
2023-02-19T22:50:18.609Z,83.19
2023-02-19T22:52:46.400Z,83.32
2023-02-19T22:55:14.551Z,83.58
2023-02-19T22:57:42.362Z,83.64
2023-02-19T23:00:16.140Z,83.84
2023-02-19T23:02:44.031Z,83.68
2023-02-19T23:05:11.893Z,83.71
2023-02-19T23:07:41.984Z,83.62
2023-02-19T23:10:10.388Z,83.66
2023-02-19T23:12:38.757Z,83.83
2023-02-19T23:15:07.449Z,83.77
2023-02-19T23:17:35.419Z,83.60
2023-02-19T23:20:03.394Z,83.59
2023-02-19T23:22:33.909Z,83.70
2023-02-19T23:25:01.667Z,83.63
2023-02-19T23:27:29.506Z,83.89
2023-02-19T23:29:57.232Z,83.67
2023-02-19T23:32:25.045Z,83.78
2023-02-19T23:34:52.818Z,83.85
2023-02-19T23:37:20.488Z,83.85
2023-02-19T23:39:48.246Z,84.10
2023-02-19T23:42:16.604Z,83.95
2023-02-19T23:44:47.794Z,84.08
2023-02-19T23:47:15.745Z,84.18
2023-02-19T23:49:43.507Z,84.18
2023-02-19T23:52:11.547Z,84.22
2023-02-19T23:54:39.384Z,84.42
2023-02-19T23:57:07.203Z,84.69
2023-02-19T23:59:34.971Z,84.70
